Tinaja, New Mexico
Current Conditions -  °F | °C
As of 1:53 PM on Tuesday 25 Nov 2014 (Local Time) from KGUP Reporting Station
Clear Clear  
Wind Chill: 44°   Ceiling: Unl
Heat Index: 49°   Visibility: 10mi
Dew Point:   Wind: 13mph
Humidity: 14%   Direction: 290°WNW
Pressure: 30.34"   Gusts: NA
Location:  35.1314°N, 108.496°W
Report Text: KGUP 252053Z AUTO 29011KT 10SM CLR 09/M17 A3034 RMK AO2 SLP295 T00941172 56023
Loading
Personal Weather Stations






























Interactive Weather Map New forecast layout! Learn more

10-Day Weather Forecast

Advertisements
Track Severe Weather on mobile